Time;durP1;ratioP1;P1;durP2;ratioP2;P2;SDS_P1;SDS_P2;PMS_P1;PMS_P2;Temp;Humidity;BMP_temperature;BMP_pressure;BME280_temperature;BME280_humidity;BME280_pressure;Samples;Min_cycle;Max_cycle;Signal;HPM_P1;HPM_P2
2023/08/26 00:00:36;;;;;;;;;;;;;;;19.69;43.69;99982.06;4884124;28;98233;-73
2023/08/26 00:03:03;;;;;;;;;;;;;;;19.65;43.51;99986.63;4866360;28;97953;-73
2023/08/26 00:05:30;;;;;;;;;;;;;;;19.61;43.59;99969.28;4902248;28;97969;-76
2023/08/26 00:07:57;;;;;;;;;;;;;;;19.57;43.67;99971.91;4887606;28;98279;-76
2023/08/26 00:10:23;;;;;;;;;;;;;;;19.56;43.64;99981.22;4884055;28;98313;-73
2023/08/26 00:12:51;;;;;;;;;;;;;;;19.53;43.79;99970.97;4860034;28;98178;-76
2023/08/26 00:15:17;;;;;;;;;;;;;;;19.53;43.73;99975.63;4899128;28;98671;-73
2023/08/26 00:17:44;;;;;;;;;;;;;;;19.51;43.72;99969.72;4869221;28;98023;-75
2023/08/26 00:20:10;;;;;;;;;;;;;;;19.50;43.83;99970.84;4866455;28;98195;-73
2023/08/26 00:22:39;;;;;;;;;;;;;;;19.48;43.62;99973.91;4869719;28;98077;-75
2023/08/26 00:25:06;;;;;;;;;;;;;;;19.48;43.95;99965.72;4866389;28;98829;-76
2023/08/26 00:27:32;;;;;;;;;;;;;;;19.55;43.84;99963.22;4884681;28;98179;-73
2023/08/26 00:29:58;;;;;;;;;;;;;;;19.63;43.65;99961.56;4867333;28;100123;-73
2023/08/26 00:32:24;;;;;;;;;;;;;;;19.71;43.72;99957.91;4902062;28;98329;-76
2023/08/26 00:34:51;;;;;;;;;;;;;;;19.77;43.69;99967.50;4871239;28;98499;-76
2023/08/26 00:37:17;;;;;;;;;;;;;;;19.80;43.61;99953.13;4886222;28;98521;-77
2023/08/26 00:39:43;;;;;;;;;;;;;;;19.83;43.63;99946.97;4885926;28;98147;-73
2023/08/26 00:42:10;;;;;;;;;;;;;;;19.88;43.73;99956.09;4866162;28;98343;-75
2023/08/26 00:44:36;;;;;;;;;;;;;;;19.90;43.68;99954.63;4882710;28;115385;-73
2023/08/26 00:47:02;;;;;;;;;;;;;;;19.92;43.59;99951.53;4861724;28;100304;-74
2023/08/26 00:49:28;;;;;;;;;;;;;;;19.93;43.76;99959.41;4854092;28;98255;-74
2023/08/26 00:51:56;;;;;;;;;;;;;;;19.95;43.67;99951.66;4876929;28;98042;-74
2023/08/26 00:54:23;;;;;;;;;;;;;;;19.98;43.87;99952.91;4871766;28;98990;-76
2023/08/26 00:56:49;;;;;;;;;;;;;;;19.99;43.67;99960.78;4883621;28;98578;-74
2023/08/26 00:59:15;;;;;;;;;;;;;;;20.00;43.79;99956.09;4882876;28;98287;-76
2023/08/26 01:01:42;;;;;;;;;;;;;;;19.99;43.66;99952.56;4862302;28;98217;-74
2023/08/26 01:04:08;;;;;;;;;;;;;;;19.99;43.67;99957.25;4867094;28;98143;-74
2023/08/26 01:06:34;;;;;;;;;;;;;;;19.99;43.74;99954.50;4870022;28;98374;-76
2023/08/26 01:09:03;;;;;;;;;;;;;;;19.97;43.87;99945.84;4851550;28;98317;-76
2023/08/26 01:11:42;;;;;;;;;;;;;;;19.96;43.73;99953.25;4865985;28;97975;-76
2023/08/26 01:14:35;;;;;;;;;;;;;;;19.95;43.84;99953.59;4882446;28;98693;-76
2023/08/26 01:17:04;;;;;;;;;;;;;;;19.92;43.78;99948.81;4855006;28;98636;-76
2023/08/26 01:19:32;;;;;;;;;;;;;;;19.90;43.96;99949.16;4863482;28;99113;-74
2023/08/26 01:22:05;;;;;;;;;;;;;;;19.89;43.95;99949.50;4883534;28;98597;-76
2023/08/26 01:24:31;;;;;;;;;;;;;;;19.89;43.96;99931.16;4883633;28;99838;-75
2023/08/26 01:26:58;;;;;;;;;;;;;;;19.90;43.73;99931.94;4882301;28;98554;-76
2023/08/26 01:29:25;;;;;;;;;;;;;;;19.89;43.74;99933.09;4884289;28;99849;-76
2023/08/26 01:32:17;;;;;;;;;;;;;;;19.89;43.77;99933.09;4854613;28;98312;-73
2023/08/26 01:34:47;;;;;;;;;;;;;;;19.87;43.96;99941.63;4901621;28;98277;-76
2023/08/26 01:37:14;;;;;;;;;;;;;;;19.85;43.81;99946.66;4881412;28;98661;-77
2023/08/26 01:39:41;;;;;;;;;;;;;;;19.81;43.94;99938.34;4861890;28;98092;-73
2023/08/26 01:42:08;;;;;;;;;;;;;;;19.78;43.85;99939.00;4867959;28;98355;-76
2023/08/26 01:44:34;;;;;;;;;;;;;;;19.75;43.81;99928.75;4862913;28;99103;-76
2023/08/26 01:47:01;;;;;;;;;;;;;;;19.73;44.02;99927.50;4882002;28;99683;-76
2023/08/26 01:49:27;;;;;;;;;;;;;;;19.70;43.89;99930.94;4864595;28;98107;-74
2023/08/26 01:51:54;;;;;;;;;;;;;;;19.66;43.89;99933.53;4849665;28;98051;-73
2023/08/26 01:54:21;;;;;;;;;;;;;;;19.67;43.80;99934.34;4862907;28;98400;-73
2023/08/26 01:56:47;;;;;;;;;;;;;;;19.68;44.11;99927.72;4884262;28;98118;-76
2023/08/26 01:59:13;;;;;;;;;;;;;;;19.69;43.99;99923.84;4867393;28;98065;-74
2023/08/26 02:01:40;;;;;;;;;;;;;;;19.68;43.84;99916.78;4884597;28;98844;-76
2023/08/26 02:04:07;;;;;;;;;;;;;;;19.68;43.81;99917.59;4885969;28;98065;-74
2023/08/26 02:06:37;;;;;;;;;;;;;;;19.65;43.88;99910.09;4846277;28;98157;-73
2023/08/26 02:09:04;;;;;;;;;;;;;;;19.63;44.00;99906.09;4856600;28;98235;-74
2023/08/26 02:11:31;;;;;;;;;;;;;;;19.59;43.94;99905.94;4885565;28;98104;-76
2023/08/26 02:13:57;;;;;;;;;;;;;;;19.57;43.84;99902.75;4887809;28;98310;-73
2023/08/26 02:16:24;;;;;;;;;;;;;;;19.56;43.96;99904.69;4849546;28;98379;-73
2023/08/26 02:18:50;;;;;;;;;;;;;;;19.52;44.18;99911.97;4855237;28;98994;-76
2023/08/26 02:21:17;;;;;;;;;;;;;;;19.50;43.94;99916.19;4832336;28;99353;-76
2023/08/26 02:23:45;;;;;;;;;;;;;;;19.49;43.89;99907.19;4843705;28;98083;-76
2023/08/26 02:26:11;;;;;;;;;;;;;;;19.49;44.15;99904.47;4883817;28;97902;-76
2023/08/26 02:28:38;;;;;;;;;;;;;;;19.48;43.96;99915.72;4851707;28;98166;-74
2023/08/26 02:31:04;;;;;;;;;;;;;;;19.49;44.14;99907.19;4869047;28;98158;-74
2023/08/26 02:33:31;;;;;;;;;;;;;;;19.51;43.89;99906.84;4847909;28;98384;-74
2023/08/26 02:35:58;;;;;;;;;;;;;;;19.52;44.05;99909.22;4832846;28;99763;-74
2023/08/26 02:38:25;;;;;;;;;;;;;;;19.56;44.10;99907.41;4864614;28;98157;-75
2023/08/26 02:40:58;;;;;;;;;;;;;;;19.59;43.98;99901.28;4851397;28;98309;-73
2023/08/26 02:43:24;;;;;;;;;;;;;;;19.63;43.89;99897.88;4865332;28;98693;-73
2023/08/26 02:45:55;;;;;;;;;;;;;;;19.65;44.05;99896.41;4851035;28;98332;-75
2023/08/26 02:48:21;;;;;;;;;;;;;;;19.67;43.91;99896.88;4884685;28;98226;-73
2023/08/26 02:50:54;;;;;;;;;;;;;;;19.68;44.05;99901.19;4861033;28;98821;-73
2023/08/26 02:53:20;;;;;;;;;;;;;;;19.70;44.14;99904.38;4862397;28;98290;-75
2023/08/26 02:55:47;;;;;;;;;;;;;;;19.70;44.05;99887.19;4850607;28;99863;-75
2023/08/26 02:58:15;;;;;;;;;;;;;;;19.70;43.94;99893.44;4846884;28;98118;-77
2023/08/26 03:00:41;;;;;;;;;;;;;;;19.70;44.04;99900.84;4867054;28;98076;-73
2023/08/26 03:03:07;;;;;;;;;;;;;;;19.69;43.89;99901.97;4853807;28;98241;-75
2023/08/26 03:05:34;;;;;;;;;;;;;;;19.71;44.15;99908.72;4850231;28;98253;-74
2023/08/26 03:08:00;;;;;;;;;;;;;;;19.73;43.97;99892.78;4851031;28;98121;-76
2023/08/26 03:10:28;;;;;;;;;;;;;;;19.75;43.82;99903.34;4831320;28;98284;-75
2023/08/26 03:12:55;;;;;;;;;;;;;;;19.77;44.09;99901.88;4866358;28;98497;-74
2023/08/26 03:15:21;;;;;;;;;;;;;;;19.77;44.12;99898.34;4851288;28;98464;-74
2023/08/26 03:17:48;;;;;;;;;;;;;;;19.78;43.99;99906.22;4871530;28;98472;-75
2023/08/26 03:20:14;;;;;;;;;;;;;;;19.80;44.03;99906.66;4837670;28;98137;-75
2023/08/26 03:22:40;;;;;;;;;;;;;;;19.81;43.98;99910.19;4864692;28;98443;-74
2023/08/26 03:25:07;;;;;;;;;;;;;;;19.80;44.00;99920.31;4852096;28;100767;-74
2023/08/26 03:27:34;;;;;;;;;;;;;;;19.77;43.99;99926.50;4868581;28;98212;-74
2023/08/26 03:30:00;;;;;;;;;;;;;;;19.73;44.16;99933.78;4867098;28;98045;-76
2023/08/26 03:32:28;;;;;;;;;;;;;;;19.69;44.26;99941.06;4867620;28;98233;-76
2023/08/26 03:34:55;;;;;;;;;;;;;;;19.67;44.08;99948.81;4865353;28;98713;-74
2023/08/26 03:37:22;;;;;;;;;;;;;;;19.65;44.26;99942.06;4866300;28;99458;-74
2023/08/26 03:39:49;;;;;;;;;;;;;;;19.65;44.22;99944.81;4866196;28;98149;-74
2023/08/26 03:42:16;;;;;;;;;;;;;;;19.65;44.27;99942.06;4866847;28;99563;-74
2023/08/26 03:44:42;;;;;;;;;;;;;;;19.66;44.22;99940.94;4866007;28;98140;-75
2023/08/26 03:47:09;;;;;;;;;;;;;;;19.67;44.11;99935.13;4866031;28;97850;-76
2023/08/26 03:49:35;;;;;;;;;;;;;;;19.69;44.12;99941.06;4865427;28;98351;-74
2023/08/26 03:52:02;;;;;;;;;;;;;;;19.71;43.97;99937.97;4850907;28;98496;-74
2023/08/26 03:54:29;;;;;;;;;;;;;;;19.73;44.19;99941.16;4850915;28;98084;-74
2023/08/26 03:56:55;;;;;;;;;;;;;;;19.74;44.12;99943.56;4865560;28;98156;-74
2023/08/26 03:59:22;;;;;;;;;;;;;;;19.75;44.26;99939.69;4867314;28;99013;-74
2023/08/26 04:01:49;;;;;;;;;;;;;;;19.77;44.13;99936.63;4866208;28;98362;-76
2023/08/26 04:04:15;;;;;;;;;;;;;;;19.79;44.24;99946.06;4866412;28;98286;-74
2023/08/26 04:06:42;;;;;;;;;;;;;;;19.79;44.23;99940.59;4869934;28;100251;-74
2023/08/26 04:09:08;;;;;;;;;;;;;;;19.81;44.16;99943.00;4861974;28;100413;-76
2023/08/26 04:11:35;;;;;;;;;;;;;;;19.81;44.23;99949.28;4866086;28;98477;-76
2023/08/26 04:14:02;;;;;;;;;;;;;;;19.83;44.28;99957.91;4868219;28;98541;-74
2023/08/26 04:16:28;;;;;;;;;;;;;;;19.85;44.27;99954.88;4863037;28;99734;-74
2023/08/26 04:18:54;;;;;;;;;;;;;;;19.88;44.30;99964.31;4863899;28;98209;-76
2023/08/26 04:21:20;;;;;;;;;;;;;;;19.88;44.31;99967.84;4900386;28;98919;-73
2023/08/26 04:23:46;;;;;;;;;;;;;;;19.91;44.23;99969.88;4886289;28;99658;-73
2023/08/26 04:26:14;;;;;;;;;;;;;;;19.95;44.16;99975.47;4867050;28;99574;-77
2023/08/26 04:28:40;;;;;;;;;;;;;;;19.96;44.17;99985.28;4869797;28;98163;-76
2023/08/26 04:31:07;;;;;;;;;;;;;;;19.97;44.33;99979.47;4869531;28;98535;-77
2023/08/26 04:33:34;;;;;;;;;;;;;;;20.00;44.35;99989.75;4869416;28;99985;-77
2023/08/26 04:36:01;;;;;;;;;;;;;;;20.03;44.20;99991.75;4884820;28;98416;-78
2023/08/26 04:38:27;;;;;;;;;;;;;;;20.06;44.18;99984.81;4854919;28;98231;-73
2023/08/26 04:40:54;;;;;;;;;;;;;;;20.05;44.18;99994.97;4870193;28;98420;-75
2023/08/26 04:43:20;;;;;;;;;;;;;;;20.05;44.33;99986.78;4867610;28;98358;-73
2023/08/26 04:45:47;;;;;;;;;;;;;;;20.04;44.24;99987.91;4880185;28;99475;-72
2023/08/26 04:48:14;;;;;;;;;;;;;;;20.03;44.26;99991.75;4868301;28;99007;-72
2023/08/26 04:50:42;;;;;;;;;;;;;;;20.04;44.40;99996.13;4873641;28;98108;-74
2023/08/26 04:53:08;;;;;;;;;;;;;;;20.05;44.18;100008.66;4866145;28;98319;-72
2023/08/26 04:55:35;;;;;;;;;;;;;;;20.08;44.23;100004.41;4882293;28;100522;-74
2023/08/26 04:58:02;;;;;;;;;;;;;;;20.11;44.13;100011.94;4869168;28;98492;-72
2023/08/26 05:00:29;;;;;;;;;;;;;;;20.15;44.30;100017.53;4869236;28;97989;-72
2023/08/26 05:02:55;;;;;;;;;;;;;;;20.19;44.21;100024.72;4871867;28;98214;-72
2023/08/26 05:05:22;;;;;;;;;;;;;;;20.22;44.20;100017.75;4867226;28;99643;-73
2023/08/26 05:07:48;;;;;;;;;;;;;;;20.24;44.22;100031.88;4888345;28;98354;-72
2023/08/26 05:10:15;;;;;;;;;;;;;;;20.26;44.39;100032.34;4868241;28;97810;-73
2023/08/26 05:12:41;;;;;;;;;;;;;;;20.28;44.23;100036.34;4868911;28;98817;-74
2023/08/26 05:15:08;;;;;;;;;;;;;;;20.32;44.29;100048.22;4882446;28;101018;-74
2023/08/26 05:17:34;;;;;;;;;;;;;;;20.34;44.34;100050.59;4884334;28;99440;-72
2023/08/26 05:20:02;;;;;;;;;;;;;;;20.37;44.37;100049.91;4883666;28;98281;-74
2023/08/26 05:22:29;;;;;;;;;;;;;;;20.37;44.44;100049.13;4885330;28;97959;-73
2023/08/26 05:24:56;;;;;;;;;;;;;;;20.40;44.25;100045.72;4883149;28;98220;-73
2023/08/26 05:27:23;;;;;;;;;;;;;;;20.41;44.42;100050.81;4886602;28;98693;-73
2023/08/26 05:29:50;;;;;;;;;;;;;;;20.42;44.22;100044.19;4872048;28;98063;-72
2023/08/26 05:32:17;;;;;;;;;;;;;;;20.42;44.41;100044.19;4869179;28;98418;-72
2023/08/26 05:34:45;;;;;;;;;;;;;;;20.43;44.48;100034.03;4871778;28;98596;-72
2023/08/26 05:37:12;;;;;;;;;;;;;;;20.45;44.33;100029.84;4867681;28;98244;-72
2023/08/26 05:39:38;;;;;;;;;;;;;;;20.48;44.29;100029.16;4868441;28;98087;-72
2023/08/26 05:42:05;;;;;;;;;;;;;;;;;;4867599;28;99321;-74
2023/08/26 05:44:31;;;;;;;;;;;;;;;20.57;44.33;100029.06;4878933;28;97992;-72
2023/08/26 05:46:58;;;;;;;;;;;;;;;20.60;44.32;100033.84;4871353;28;98135;-74
2023/08/26 05:49:24;;;;;;;;;;;;;;;20.63;44.24;100029.59;4879584;28;98198;-72
2023/08/26 05:51:51;;;;;;;;;;;;;;;20.64;44.36;100037.47;4870192;28;98349;-72
2023/08/26 05:54:19;;;;;;;;;;;;;;;20.65;44.36;100033.59;4867814;28;98355;-74
2023/08/26 05:56:46;;;;;;;;;;;;;;;20.68;44.30;100043.06;4867692;28;98060;-74
2023/08/26 05:59:13;;;;;;;;;;;;;;;20.69;44.28;100039.19;4886502;28;98049;-74
2023/08/26 06:01:39;;;;;;;;;;;;;;;20.70;44.22;100040.78;4876086;28;99012;-72
2023/08/26 06:04:06;;;;;;;;;;;;;;;20.71;44.34;100045.09;4867038;28;98415;-72
2023/08/26 06:06:33;;;;;;;;;;;;;;;20.71;44.49;100043.19;4886756;28;99352;-72
2023/08/26 06:08:59;;;;;;;;;;;;;;;20.71;44.32;100048.66;4889681;28;98410;-74
2023/08/26 06:11:26;;;;;;;;;;;;;;;20.71;44.34;100045.09;4876085;28;98316;-72
2023/08/26 06:13:53;;;;;;;;;;;;;;;20.70;44.35;100038.81;4865449;28;98770;-74
2023/08/26 06:16:20;;;;;;;;;;;;;;;20.69;44.29;100052.88;4871580;28;98330;-72
2023/08/26 06:18:48;;;;;;;;;;;;;;;20.67;44.48;100055.16;4850131;28;98039;-72
2023/08/26 06:21:17;;;;;;;;;;;;;;;20.65;44.50;100052.75;4868997;28;97975;-74
2023/08/26 06:23:44;;;;;;;;;;;;;;;20.67;44.48;100055.16;4859824;28;102186;-74
2023/08/26 06:26:10;;;;;;;;;;;;;;;20.69;44.42;100050.13;4848057;28;98381;-72
2023/08/26 06:28:37;;;;;;;;;;;;;;;20.74;44.32;100064.38;4866362;28;99271;-74
2023/08/26 06:31:03;;;;;;;;;;;;;;;20.81;44.30;100056.38;4866458;28;97883;-72
2023/08/26 06:33:29;;;;;;;;;;;;;;;20.89;44.30;100064.81;4867252;28;98902;-72
2023/08/26 06:35:58;;;;;;;;;;;;;;;20.93;44.27;100073.94;4864267;28;98595;-74
2023/08/26 06:38:24;;;;;;;;;;;;;;;20.97;44.35;100075.63;4881220;28;98932;-72
2023/08/26 06:40:57;;;;;;;;;;;;;;;21.01;44.25;100081.22;4864378;28;98397;-73
2023/08/26 06:43:23;;;;;;;;;;;;;;;21.02;44.31;100083.59;4885688;28;99495;-72
2023/08/26 06:45:52;;;;;;;;;;;;;;;21.08;44.37;100086.91;4867570;28;98708;-75
2023/08/26 06:48:18;;;;;;;;;;;;;;;21.11;44.34;100085.44;4868382;28;98023;-74
2023/08/26 06:50:49;;;;;;;;;;;;;;;21.15;44.17;100089.06;4851846;28;99198;-72
2023/08/26 06:53:22;;;;;;;;;;;;;;;21.20;44.19;100094.28;4862560;28;98237;-72
2023/08/26 06:55:52;;;;;;;;;;;;;;;21.22;44.27;100087.34;4885494;28;98060;-74
2023/08/26 06:58:19;;;;;;;;;;;;;;;21.26;44.21;100084.66;4896206;28;98862;-74
2023/08/26 07:00:46;;;;;;;;;;;;;;;21.29;44.22;100093.00;4875905;28;98127;-72
2023/08/26 07:03:12;;;;;;;;;;;;;;;21.32;44.27;100095.06;4862122;28;99387;-72
2023/08/26 07:05:43;;;;;;;;;;;;;;;21.37;44.32;100101.44;4868219;28;98120;-74
2023/08/26 07:08:10;;;;;;;;;;;;;;;21.43;44.21;100097.34;4884545;28;98523;-73
2023/08/26 07:10:36;;;;;;;;;;;;;;;21.50;44.07;100094.78;4867174;28;98616;-74
2023/08/26 07:13:03;;;;;;;;;;;;;;;21.56;44.17;100093.38;4868299;28;99053;-72
2023/08/26 07:15:30;;;;;;;;;;;;;;;21.61;44.04;100100.56;4867097;28;101278;-74
2023/08/26 07:17:57;;;;;;;;;;;;;;;21.66;44.18;100101.09;4865438;28;98135;-72
2023/08/26 07:20:25;;;;;;;;;;;;;;;21.71;44.10;100098.09;4889202;28;98964;-73
2023/08/26 07:22:52;;;;;;;;;;;;;;;21.75;44.09;100093.50;4858343;28;99735;-72
2023/08/26 07:25:19;;;;;;;;;;;;;;;21.85;44.17;100099.63;4848158;28;98247;-71
2023/08/26 07:27:45;;;;;;;;;;;;;;;21.98;44.01;100092.94;4859184;28;99139;-73
2023/08/26 07:30:13;;;;;;;;;;;;;;;22.16;43.76;100112.59;4881062;28;98345;-74
2023/08/26 07:32:41;;;;;;;;;;;;;;;22.26;43.79;100107.38;4847473;28;98325;-73
2023/08/26 07:35:08;;;;;;;;;;;;;;;22.35;43.57;100111.91;4844602;28;99775;-74
2023/08/26 07:37:36;;;;;;;;;;;;;;;22.51;43.46;100116.22;4859067;28;98247;-72
2023/08/26 07:40:07;;;;;;;;;;;;;;;22.81;43.22;100123.97;4849080;28;98342;-74
2023/08/26 07:42:35;;;;;;;;;;;;;;;23.19;42.94;100120.53;4860642;28;99305;-74
2023/08/26 07:45:02;;;;;;;;;;;;;;;23.75;42.46;100116.56;4859997;28;98528;-73
2023/08/26 07:47:29;;;;;;;;;;;;;;;24.04;42.29;100109.63;4844050;28;99117;-74
2023/08/26 07:49:56;;;;;;;;;;;;;;;24.34;42.33;100106.19;4847487;28;98460;-72
2023/08/26 07:52:22;;;;;;;;;;;;;;;24.70;41.79;100102.84;4880487;28;98959;-72
2023/08/26 07:54:49;;;;;;;;;;;;;;;24.84;42.09;100107.78;4864205;28;98435;-75
2023/08/26 07:57:15;;;;;;;;;;;;;;;24.86;42.19;100108.19;4862689;28;98921;-75
2023/08/26 07:59:44;;;;;;;;;;;;;;;24.87;42.45;100111.72;4850432;28;99527;-75
2023/08/26 08:02:10;;;;;;;;;;;;;;;25.31;42.03;100103.69;4850152;28;102070;-75
2023/08/26 08:04:37;;;;;;;;;;;;;;;25.79;41.46;100112.13;4867305;28;98510;-73
2023/08/26 08:07:03;;;;;;;;;;;;;;;26.31;41.22;100106.69;4879569;28;99488;-75
2023/08/26 08:09:30;;;;;;;;;;;;;;;27.46;40.29;100105.41;4878102;28;98223;-75
2023/08/26 08:11:56;;;;;;;;;;;;;;;28.80;38.84;100094.84;4844284;28;98202;-73
2023/08/26 08:14:23;;;;;;;;;;;;;;;29.89;38.25;100110.66;4863084;28;98559;-75
2023/08/26 08:16:49;;;;;;;;;;;;;;;29.73;38.78;100116.72;4862779;28;98386;-75
2023/08/26 08:19:15;;;;;;;;;;;;;;;29.82;39.42;100111.50;4850852;28;101135;-75
2023/08/26 08:21:41;;;;;;;;;;;;;;;29.11;40.68;100093.19;4864603;28;98539;-73
2023/08/26 08:24:07;;;;;;;;;;;;;;;28.95;40.57;100090.84;4876777;28;98249;-75
2023/08/26 08:26:35;;;;;;;;;;;;;;;29.61;40.20;100084.66;4881687;28;98231;-76
2023/08/26 08:29:01;;;;;;;;;;;;;;;29.79;39.92;100088.13;4884643;28;98780;-74
2023/08/26 08:31:28;;;;;;;;;;;;;;;30.75;39.09;100077.41;4867864;28;98541;-75
2023/08/26 08:33:54;;;;;;;;;;;;;;;30.76;39.54;100088.09;4865095;28;98336;-75
2023/08/26 08:36:21;;;;;;;;;;;;;;;31.00;39.33;100088.25;4863556;28;98305;-73
2023/08/26 08:38:47;;;;;;;;;;;;;;;31.67;38.93;100080.22;4865887;28;98171;-75
2023/08/26 08:41:13;;;;;;;;;;;;;;;31.18;39.73;100074.13;4850542;28;98033;-77
2023/08/26 08:43:39;;;;;;;;;;;;;;;31.23;39.72;100079.22;4897743;28;98003;-76
2023/08/26 08:46:07;;;;;;;;;;;;;;;31.76;39.33;100077.72;4883883;28;99207;-75
2023/08/26 08:48:34;;;;;;;;;;;;;;;32.23;39.10;100073.00;4843556;28;126072;-78
2023/08/26 08:51:00;;;;;;;;;;;;;;;33.02;38.22;100065.22;4881643;28;98294;-73
2023/08/26 08:53:31;;;;;;;;;;;;;;;33.87;37.63;100073.69;4880027;28;99306;-72
2023/08/26 08:56:01;;;;;;;;;;;;;;;34.09;37.95;100060.00;4885455;28;98402;-77
2023/08/26 08:58:28;;;;;;;;;;;;;;;34.99;37.02;100069.63;4880413;28;99620;-73
2023/08/26 09:00:54;;;;;;;;;;;;;;;35.50;36.76;100078.91;4849804;28;98668;-74
2023/08/26 09:03:20;;;;;;;;;;;;;;;35.82;36.93;100063.88;4861745;28;100962;-72
2023/08/26 09:05:47;;;;;;;;;;;;;;;34.19;38.79;100068.13;4882909;28;98213;-73
2023/08/26 09:08:13;;;;;;;;;;;;;;;34.26;38.82;100064.34;4853639;28;98149;-76
2023/08/26 09:10:40;;;;;;;;;;;;;;;34.81;38.29;100067.31;4866811;28;98197;-78
2023/08/26 09:13:06;;;;;;;;;;;;;;;36.77;36.21;100061.06;4834581;28;101962;-78
2023/08/26 09:15:33;;;;;;;;;;;;;;;37.37;35.77;100064.88;4883053;28;98493;-72
2023/08/26 09:18:00;;;;;;;;;;;;;;;36.67;36.98;100053.03;4862157;28;98647;-75
2023/08/26 09:20:28;;;;;;;;;;;;;;;37.10;36.59;100072.69;4885006;28;98974;-76
2023/08/26 09:23:03;;;;;;;;;;;;;;;36.64;36.97;100065.97;4866892;28;98930;-77
2023/08/26 09:25:31;;;;;;;;;;;;;;;34.78;39.39;100062.59;4877756;28;99067;-74
2023/08/26 09:28:00;;;;;;;;;;;;;;;34.08;39.61;100047.28;4865506;28;98983;-72
2023/08/26 09:30:27;;;;;;;;;;;;;;;35.20;38.58;100059.81;4880638;28;98015;-76
2023/08/26 09:32:55;;;;;;;;;;;;;;;36.70;36.99;100049.31;4879568;28;98320;-72
2023/08/26 09:35:21;;;;;;;;;;;;;;;37.45;36.63;100066.97;4861542;28;98649;-72
2023/08/26 09:37:55;;;;;;;;;;;;;;;36.73;37.29;100068.81;4865460;28;100201;-74
2023/08/26 09:40:21;;;;;;;;;;;;;;;36.97;37.54;100071.19;4844243;28;98610;-74
2023/08/26 09:42:48;;;;;;;;;;;;;;;35.65;38.83;100062.47;4867584;28;99012;-74
2023/08/26 09:45:17;;;;;;;;;;;;;;;37.29;37.00;100062.31;4860257;28;98359;-73
2023/08/26 09:47:44;;;;;;;;;;;;;;;38.09;36.38;100048.75;4879011;28;98384;-74
2023/08/26 09:50:10;;;;;;;;;;;;;;;35.78;38.81;100054.81;4869571;28;97978;-74
2023/08/26 09:52:47;;;;;;;;;;;;;;;34.88;39.62;100053.91;4896972;28;99345;-73
2023/08/26 09:55:13;;;;;;;;;;;;;;;33.92;40.84;100059.22;4864353;28;98447;-74
2023/08/26 09:57:40;;;;;;;;;;;;;;;33.57;40.87;100050.47;4880130;28;98938;-74
2023/08/26 10:00:10;;;;;;;;;;;;;;;35.55;38.10;100060.75;4861614;28;99401;-76
2023/08/26 10:02:38;;;;;;;;;;;;;;;35.96;37.41;100073.88;4868666;28;98089;-74
2023/08/26 10:05:06;;;;;;;;;;;;;;;33.99;39.97;100066.66;4885296;28;98391;-74
2023/08/26 10:07:32;;;;;;;;;;;;;;;34.12;39.41;100079.50;4866926;28;98245;-74
2023/08/26 10:10:21;;;;;;;;;;;;;;;33.66;40.45;100081.38;4863221;28;98900;-76
2023/08/26 10:12:48;;;;;;;;;;;;;;;36.06;37.29;100088.78;4899334;28;98669;-73
2023/08/26 10:15:16;;;;;;;;;;;;;;;35.78;37.91;100099.66;4882152;28;98128;-75
2023/08/26 10:17:48;;;;;;;;;;;;;;;34.62;39.25;100097.78;4867468;28;98308;-74
2023/08/26 10:20:15;;;;;;;;;;;;;;;36.71;36.89;100101.38;4871632;28;98274;-75
2023/08/26 10:22:41;;;;;;;;;;;;;;;37.33;36.70;100104.31;4845687;28;105012;-74
2023/08/26 10:25:08;;;;;;;;;;;;;;;38.74;35.43;100098.19;4866092;28;98363;-74
2023/08/26 10:27:35;;;;;;;;;;;;;;;37.86;36.65;100093.03;4875379;28;98352;-74
2023/08/26 10:30:02;;;;;;;;;;;;;;;37.03;37.92;100092.63;4862885;28;98253;-73
2023/08/26 10:32:28;;;;;;;;;;;;;;;35.67;39.50;100090.00;4877848;28;98104;-73
2023/08/26 10:34:55;;;;;;;;;;;;;;;34.71;39.99;100083.19;4879899;28;98735;-74
2023/08/26 10:37:28;;;;;;;;;;;;;;;33.90;40.44;100086.78;4857459;28;100888;-73
2023/08/26 10:39:55;;;;;;;;;;;;;;;36.00;38.10;100080.16;4874742;28;98319;-74
2023/08/26 10:42:22;;;;;;;;;;;;;;;37.21;37.08;100094.75;4879571;28;98343;-73
2023/08/26 10:44:57;;;;;;;;;;;;;;;37.54;36.79;100086.69;4880055;28;98542;-74
2023/08/26 10:47:37;;;;;;;;;;;;;;;38.42;36.15;100103.19;4886832;28;98505;-74
2023/08/26 10:50:22;;;;;;;;;;;;;;;38.34;36.20;100103.97;4881912;28;98105;-74
2023/08/26 10:52:53;;;;;;;;;;;;;;;38.33;36.30;100103.19;4899621;28;98842;-74
2023/08/26 10:55:24;;;;;;;;;;;;;;;40.03;34.83;100104.25;4883959;28;98161;-74
2023/08/26 10:58:18;;;;;;;;;;;;;;;40.94;34.32;100104.84;4869330;28;100275;-74
2023/08/26 11:00:45;;;;;;;;;;;;;;;41.49;34.14;100101.47;4881745;28;99227;-73
2023/08/26 11:03:14;;;;;;;;;;;;;;;41.85;33.80;100108.72;4846184;28;99436;-74
2023/08/26 11:05:44;;;;;;;;;;;;;;;42.12;34.42;100098.28;4866098;28;99432;-74
2023/08/26 11:08:11;;;;;;;;;;;;;;;42.30;34.29;100100.88;4883606;28;98906;-74
2023/08/26 11:10:41;;;;;;;;;;;;;;;42.00;34.73;100107.91;4850629;28;98529;-73
2023/08/26 11:13:08;;;;;;;;;;;;;;;42.05;34.35;100098.69;4880322;28;98533;-74
2023/08/26 11:15:41;;;;;;;;;;;;;;;42.03;34.58;100104.84;4862949;28;98368;-74
2023/08/26 11:18:08;;;;;;;;;;;;;;;41.77;35.29;100096.22;4868865;28;99558;-74
2023/08/26 11:20:35;;;;;;;;;;;;;;;41.48;35.84;100096.31;4846974;28;101171;-74
2023/08/26 11:23:02;;;;;;;;;;;;;;;40.70;36.38;100094.41;4863366;28;98041;-74
2023/08/26 11:25:29;;;;;;;;;;;;;;;40.64;36.22;100102.00;4826582;28;98227;-74
2023/08/26 11:28:00;;;;;;;;;;;;;;;38.94;38.22;100098.50;4847503;28;99952;-74
2023/08/26 11:30:27;;;;;;;;;;;;;;;39.15;37.58;100102.41;4867113;28;98862;-74
2023/08/26 11:32:53;;;;;;;;;;;;;;;38.73;37.53;100102.25;4846227;28;98261;-74
2023/08/26 11:35:19;;;;;;;;;;;;;;;39.04;36.92;100110.53;4862397;28;97966;-74
2023/08/26 11:37:48;;;;;;;;;;;;;;;37.99;38.21;100112.63;4825250;28;126351;-73
2023/08/26 11:40:15;;;;;;;;;;;;;;;36.64;39.73;100110.88;4849514;28;98555;-74
2023/08/26 11:42:42;;;;;;;;;;;;;;;35.84;39.95;100100.66;4862069;28;98169;-74
2023/08/26 11:45:12;;;;;;;;;;;;;;;37.99;37.66;100101.38;4865599;28;98484;-74
2023/08/26 11:47:41;;;;;;;;;;;;;;;38.68;36.53;100091.63;4841768;28;98211;-74
2023/08/26 11:50:10;;;;;;;;;;;;;;;38.94;36.90;100100.53;4857194;28;99792;-74
2023/08/26 11:52:37;;;;;;;;;;;;;;;39.12;36.52;100091.28;4869534;28;98054;-74
2023/08/26 11:55:04;;;;;;;;;;;;;;;39.21;36.89;100091.25;4863837;28;98141;-74
2023/08/26 11:57:33;;;;;;;;;;;;;;;39.35;36.83;100095.47;4848978;28;98362;-74
2023/08/26 12:00:25;;;;;;;;;;;;;;;39.57;36.36;100084.72;4847455;28;98136;-74
2023/08/26 12:02:53;;;;;;;;;;;;;;;39.75;36.51;100090.31;4855402;28;98457;-73
2023/08/26 12:05:20;;;;;;;;;;;;;;;39.67;36.82;100091.94;4845330;28;98389;-74
2023/08/26 12:07:51;;;;;;;;;;;;;;;39.74;36.92;100080.31;4855964;28;100125;-74
2023/08/26 12:10:18;;;;;;;;;;;;;;;39.15;37.15;100090.34;4866739;28;98623;-74
2023/08/26 12:12:45;;;;;;;;;;;;;;;39.69;36.85;100091.44;4861173;28;98460;-73
2023/08/26 12:15:13;;;;;;;;;;;;;;;39.89;36.65;100086.03;4856493;28;98986;-73
2023/08/26 12:17:46;;;;;;;;;;;;;;;39.43;37.46;100082.63;4841503;28;98095;-73
2023/08/26 12:20:29;;;;;;;;;;;;;;;39.82;36.97;100072.28;4880766;28;98525;-73
2023/08/26 12:22:56;;;;;;;;;;;;;;;39.68;37.23;100058.88;4847310;28;98503;-73
2023/08/26 12:25:32;;;;;;;;;;;;;;;39.34;37.55;100065.72;4864380;28;98219;-74
2023/08/26 12:28:13;;;;;;;;;;;;;;;39.28;37.32;100069.19;4849637;28;99695;-75
2023/08/26 12:30:43;;;;;;;;;;;;;;;38.22;38.72;100069.84;4864944;28;98114;-73
2023/08/26 12:33:09;;;;;;;;;;;;;;;37.58;39.21;100067.66;4843134;28;98490;-73
2023/08/26 12:35:36;;;;;;;;;;;;;;;37.05;39.34;100078.91;4843439;28;98477;-73
2023/08/26 12:38:02;;;;;;;;;;;;;;;36.69;39.32;100067.41;4860816;28;98496;-74
2023/08/26 12:40:32;;;;;;;;;;;;;;;35.91;39.98;100057.59;4855687;28;101208;-73
2023/08/26 12:43:04;;;;;;;;;;;;;;;36.74;38.69;100059.16;4846968;28;98318;-73